sensor_id;sensor_type;location;lat;lon;timestamp;P1;durP1;ratioP1;P2;durP2;ratioP2
15198;SDS011;7700;48.654;9.070;2023-05-10T00:00:08;1.67;;;0.75;;
15198;SDS011;7700;48.654;9.070;2023-05-10T00:02:34;1.30;;;0.93;;
15198;SDS011;7700;48.654;9.070;2023-05-10T00:05:01;30.20;;;3.03;;
15198;SDS011;7700;48.654;9.070;2023-05-10T00:07:27;1.73;;;0.65;;
15198;SDS011;7700;48.654;9.070;2023-05-10T00:09:53;2.08;;;0.63;;
15198;SDS011;7700;48.654;9.070;2023-05-10T00:12:19;0.80;;;0.68;;
15198;SDS011;7700;48.654;9.070;2023-05-10T00:14:45;0.60;;;0.60;;
15198;SDS011;7700;48.654;9.070;2023-05-10T00:17:11;0.70;;;0.70;;
15198;SDS011;7700;48.654;9.070;2023-05-10T00:19:37;1.42;;;0.63;;
15198;SDS011;7700;48.654;9.070;2023-05-10T00:22:03;1.73;;;0.80;;
15198;SDS011;7700;48.654;9.070;2023-05-10T00:24:29;1.92;;;0.88;;
15198;SDS011;7700;48.654;9.070;2023-05-10T00:26:55;0.98;;;0.45;;
15198;SDS011;7700;48.654;9.070;2023-05-10T00:29:21;0.43;;;0.43;;
15198;SDS011;7700;48.654;9.070;2023-05-10T00:31:47;0.68;;;0.68;;
15198;SDS011;7700;48.654;9.070;2023-05-10T00:34:13;1.67;;;0.70;;
15198;SDS011;7700;48.654;9.070;2023-05-10T00:36:40;2.08;;;0.60;;
15198;SDS011;7700;48.654;9.070;2023-05-10T00:39:06;1.77;;;0.50;;
15198;SDS011;7700;48.654;9.070;2023-05-10T00:41:32;0.47;;;0.47;;
15198;SDS011;7700;48.654;9.070;2023-05-10T00:43:58;1.55;;;0.70;;
15198;SDS011;7700;48.654;9.070;2023-05-10T00:46:25;1.85;;;0.50;;
15198;SDS011;7700;48.654;9.070;2023-05-10T00:48:52;0.52;;;0.50;;
15198;SDS011;7700;48.654;9.070;2023-05-10T00:51:18;1.20;;;0.45;;
15198;SDS011;7700;48.654;9.070;2023-05-10T00:53:45;0.80;;;0.52;;
15198;SDS011;7700;48.654;9.070;2023-05-10T00:56:11;1.00;;;0.45;;
15198;SDS011;7700;48.654;9.070;2023-05-10T00:58:38;1.85;;;0.70;;
15198;SDS011;7700;48.654;9.070;2023-05-10T01:01:04;0.93;;;0.63;;
15198;SDS011;7700;48.654;9.070;2023-05-10T01:03:31;0.40;;;0.40;;
15198;SDS011;7700;48.654;9.070;2023-05-10T01:05:57;0.63;;;0.63;;
15198;SDS011;7700;48.654;9.070;2023-05-10T01:08:23;1.48;;;0.30;;
15198;SDS011;7700;48.654;9.070;2023-05-10T01:10:49;1.95;;;0.40;;
15198;SDS011;7700;48.654;9.070;2023-05-10T01:13:18;0.20;;;0.20;;
15198;SDS011;7700;48.654;9.070;2023-05-10T01:15:48;0.43;;;0.40;;
15198;SDS011;7700;48.654;9.070;2023-05-10T01:18:15;0.20;;;0.20;;
15198;SDS011;7700;48.654;9.070;2023-05-10T01:20:45;0.88;;;0.30;;
15198;SDS011;7700;48.654;9.070;2023-05-10T01:23:24;0.22;;;0.20;;
15198;SDS011;7700;48.654;9.070;2023-05-10T01:31:26;0.30;;;0.30;;
15198;SDS011;7700;48.654;9.070;2023-05-10T01:33:59;1.75;;;0.28;;
15198;SDS011;7700;48.654;9.070;2023-05-10T01:36:40;1.30;;;0.30;;
15198;SDS011;7700;48.654;9.070;2023-05-10T01:42:03;1.13;;;0.32;;
15198;SDS011;7700;48.654;9.070;2023-05-10T01:44:40;1.25;;;0.30;;
15198;SDS011;7700;48.654;9.070;2023-05-10T01:47:09;0.25;;;0.20;;
15198;SDS011;7700;48.654;9.070;2023-05-10T01:50:10;0.98;;;0.38;;
15198;SDS011;7700;48.654;9.070;2023-05-10T01:52:30;0.30;;;0.30;;
15198;SDS011;7700;48.654;9.070;2023-05-10T01:55:01;0.95;;;0.30;;
15198;SDS011;7700;48.654;9.070;2023-05-10T01:57:32;0.20;;;0.20;;
15198;SDS011;7700;48.654;9.070;2023-05-10T01:59:59;0.20;;;0.20;;
15198;SDS011;7700;48.654;9.070;2023-05-10T02:02:26;0.35;;;0.20;;
15198;SDS011;7700;48.654;9.070;2023-05-10T02:04:53;1.23;;;0.30;;
15198;SDS011;7700;48.654;9.070;2023-05-10T02:07:19;0.20;;;0.20;;
15198;SDS011;7700;48.654;9.070;2023-05-10T02:09:45;0.52;;;0.30;;
15198;SDS011;7700;48.654;9.070;2023-05-10T02:12:13;0.70;;;0.30;;
15198;SDS011;7700;48.654;9.070;2023-05-10T02:14:39;0.57;;;0.32;;
15198;SDS011;7700;48.654;9.070;2023-05-10T02:17:06;0.57;;;0.30;;
15198;SDS011;7700;48.654;9.070;2023-05-10T02:19:33;1.85;;;0.40;;
15198;SDS011;7700;48.654;9.070;2023-05-10T02:22:00;1.20;;;0.20;;
15198;SDS011;7700;48.654;9.070;2023-05-10T02:24:26;0.95;;;0.40;;
15198;SDS011;7700;48.654;9.070;2023-05-10T02:26:53;1.02;;;0.40;;
15198;SDS011;7700;48.654;9.070;2023-05-10T02:29:20;0.75;;;0.28;;
15198;SDS011;7700;48.654;9.070;2023-05-10T02:31:48;0.40;;;0.30;;
15198;SDS011;7700;48.654;9.070;2023-05-10T02:34:15;1.25;;;0.35;;
15198;SDS011;7700;48.654;9.070;2023-05-10T02:36:41;0.30;;;0.30;;
15198;SDS011;7700;48.654;9.070;2023-05-10T02:39:07;1.00;;;0.30;;
15198;SDS011;7700;48.654;9.070;2023-05-10T02:41:37;0.30;;;0.30;;
15198;SDS011;7700;48.654;9.070;2023-05-10T02:44:03;0.68;;;0.40;;
15198;SDS011;7700;48.654;9.070;2023-05-10T02:46:32;0.57;;;0.50;;
15198;SDS011;7700;48.654;9.070;2023-05-10T02:48:58;2.15;;;0.50;;
15198;SDS011;7700;48.654;9.070;2023-05-10T02:51:25;1.70;;;0.60;;
15198;SDS011;7700;48.654;9.070;2023-05-10T02:53:53;2.28;;;0.50;;
15198;SDS011;7700;48.654;9.070;2023-05-10T02:56:23;1.58;;;0.50;;
15198;SDS011;7700;48.654;9.070;2023-05-10T02:58:50;0.63;;;0.40;;
15198;SDS011;7700;48.654;9.070;2023-05-10T03:01:16;0.50;;;0.35;;
15198;SDS011;7700;48.654;9.070;2023-05-10T03:03:42;0.40;;;0.40;;
15198;SDS011;7700;48.654;9.070;2023-05-10T03:06:08;0.47;;;0.40;;
15198;SDS011;7700;48.654;9.070;2023-05-10T03:08:34;0.77;;;0.60;;
15198;SDS011;7700;48.654;9.070;2023-05-10T03:13:35;0.77;;;0.45;;
15198;SDS011;7700;48.654;9.070;2023-05-10T03:16:10;0.60;;;0.60;;
15198;SDS011;7700;48.654;9.070;2023-05-10T03:18:42;0.60;;;0.60;;
15198;SDS011;7700;48.654;9.070;2023-05-10T03:21:11;0.85;;;0.70;;
15198;SDS011;7700;48.654;9.070;2023-05-10T03:26:07;1.33;;;0.47;;
15198;SDS011;7700;48.654;9.070;2023-05-10T03:28:33;1.27;;;0.57;;
15198;SDS011;7700;48.654;9.070;2023-05-10T03:31:00;0.90;;;0.57;;
15198;SDS011;7700;48.654;9.070;2023-05-10T03:33:26;2.85;;;0.70;;
15198;SDS011;7700;48.654;9.070;2023-05-10T03:35:52;0.60;;;0.50;;
15198;SDS011;7700;48.654;9.070;2023-05-10T03:38:18;0.47;;;0.47;;
15198;SDS011;7700;48.654;9.070;2023-05-10T03:40:44;1.10;;;0.70;;
15198;SDS011;7700;48.654;9.070;2023-05-10T03:43:10;0.70;;;0.70;;
15198;SDS011;7700;48.654;9.070;2023-05-10T03:45:36;1.40;;;1.20;;
15198;SDS011;7700;48.654;9.070;2023-05-10T03:48:02;0.73;;;0.73;;
15198;SDS011;7700;48.654;9.070;2023-05-10T03:50:28;0.80;;;0.60;;
15198;SDS011;7700;48.654;9.070;2023-05-10T03:52:54;1.35;;;0.90;;
15198;SDS011;7700;48.654;9.070;2023-05-10T03:55:20;3.17;;;1.13;;
15198;SDS011;7700;48.654;9.070;2023-05-10T03:57:47;2.43;;;1.00;;
15198;SDS011;7700;48.654;9.070;2023-05-10T04:00:14;1.10;;;1.00;;
15198;SDS011;7700;48.654;9.070;2023-05-10T04:02:40;1.13;;;0.80;;
15198;SDS011;7700;48.654;9.070;2023-05-10T04:05:06;0.90;;;0.90;;
15198;SDS011;7700;48.654;9.070;2023-05-10T04:07:32;1.63;;;1.10;;
15198;SDS011;7700;48.654;9.070;2023-05-10T04:09:58;0.80;;;0.80;;
15198;SDS011;7700;48.654;9.070;2023-05-10T04:12:24;1.40;;;1.30;;
15198;SDS011;7700;48.654;9.070;2023-05-10T04:14:50;3.63;;;1.50;;
15198;SDS011;7700;48.654;9.070;2023-05-10T04:17:16;1.95;;;1.85;;
15198;SDS011;7700;48.654;9.070;2023-05-10T04:19:42;2.95;;;1.38;;
15198;SDS011;7700;48.654;9.070;2023-05-10T04:22:08;1.98;;;1.60;;
15198;SDS011;7700;48.654;9.070;2023-05-10T04:24:34;1.45;;;1.20;;
15198;SDS011;7700;48.654;9.070;2023-05-10T04:27:00;2.00;;;1.20;;
15198;SDS011;7700;48.654;9.070;2023-05-10T04:29:26;0.93;;;0.93;;
15198;SDS011;7700;48.654;9.070;2023-05-10T04:31:52;1.33;;;1.20;;
15198;SDS011;7700;48.654;9.070;2023-05-10T04:34:20;1.50;;;1.40;;
15198;SDS011;7700;48.654;9.070;2023-05-10T04:36:46;1.92;;;1.50;;
15198;SDS011;7700;48.654;9.070;2023-05-10T04:39:11;2.00;;;1.55;;
15198;SDS011;7700;48.654;9.070;2023-05-10T04:41:38;1.40;;;1.30;;
15198;SDS011;7700;48.654;9.070;2023-05-10T04:44:04;2.15;;;0.85;;
15198;SDS011;7700;48.654;9.070;2023-05-10T04:46:31;1.05;;;0.95;;
15198;SDS011;7700;48.654;9.070;2023-05-10T04:48:57;1.00;;;0.90;;
15198;SDS011;7700;48.654;9.070;2023-05-10T04:51:23;2.97;;;1.05;;
15198;SDS011;7700;48.654;9.070;2023-05-10T04:53:49;1.20;;;0.80;;
15198;SDS011;7700;48.654;9.070;2023-05-10T04:56:15;1.05;;;0.95;;
15198;SDS011;7700;48.654;9.070;2023-05-10T04:58:42;1.13;;;1.00;;
15198;SDS011;7700;48.654;9.070;2023-05-10T05:01:08;1.40;;;1.30;;
15198;SDS011;7700;48.654;9.070;2023-05-10T05:03:35;2.35;;;1.15;;
15198;SDS011;7700;48.654;9.070;2023-05-10T05:06:02;1.33;;;1.23;;
15198;SDS011;7700;48.654;9.070;2023-05-10T05:08:28;3.20;;;1.60;;
15198;SDS011;7700;48.654;9.070;2023-05-10T05:10:53;1.30;;;1.20;;
15198;SDS011;7700;48.654;9.070;2023-05-10T05:13:19;3.17;;;1.70;;
15198;SDS011;7700;48.654;9.070;2023-05-10T05:15:45;2.10;;;1.23;;
15198;SDS011;7700;48.654;9.070;2023-05-10T05:18:11;1.25;;;1.05;;
15198;SDS011;7700;48.654;9.070;2023-05-10T05:20:37;1.17;;;1.10;;
15198;SDS011;7700;48.654;9.070;2023-05-10T05:23:03;1.75;;;1.20;;
15198;SDS011;7700;48.654;9.070;2023-05-10T05:25:29;3.08;;;1.13;;
15198;SDS011;7700;48.654;9.070;2023-05-10T05:27:55;2.65;;;1.05;;
15198;SDS011;7700;48.654;9.070;2023-05-10T05:30:21;1.00;;;0.90;;
15198;SDS011;7700;48.654;9.070;2023-05-10T05:32:47;2.42;;;1.25;;
15198;SDS011;7700;48.654;9.070;2023-05-10T05:35:13;1.17;;;1.08;;
15198;SDS011;7700;48.654;9.070;2023-05-10T05:37:39;1.23;;;0.77;;
15198;SDS011;7700;48.654;9.070;2023-05-10T05:40:05;1.33;;;1.25;;
15198;SDS011;7700;48.654;9.070;2023-05-10T05:42:31;1.73;;;1.33;;
15198;SDS011;7700;48.654;9.070;2023-05-10T05:44:57;1.25;;;1.15;;
15198;SDS011;7700;48.654;9.070;2023-05-10T05:47:23;2.05;;;1.35;;
15198;SDS011;7700;48.654;9.070;2023-05-10T05:49:49;1.63;;;1.50;;
15198;SDS011;7700;48.654;9.070;2023-05-10T05:52:16;1.90;;;1.55;;
15198;SDS011;7700;48.654;9.070;2023-05-10T05:54:42;3.40;;;1.45;;
15198;SDS011;7700;48.654;9.070;2023-05-10T05:57:08;1.65;;;1.20;;
15198;SDS011;7700;48.654;9.070;2023-05-10T05:59:34;1.52;;;1.10;;
15198;SDS011;7700;48.654;9.070;2023-05-10T06:02:00;1.10;;;1.00;;
15198;SDS011;7700;48.654;9.070;2023-05-10T06:04:26;2.42;;;1.15;;
15198;SDS011;7700;48.654;9.070;2023-05-10T06:06:52;2.55;;;0.80;;
15198;SDS011;7700;48.654;9.070;2023-05-10T06:09:18;1.00;;;1.00;;
15198;SDS011;7700;48.654;9.070;2023-05-10T06:11:44;1.20;;;1.02;;
15198;SDS011;7700;48.654;9.070;2023-05-10T06:14:10;1.50;;;1.38;;
15198;SDS011;7700;48.654;9.070;2023-05-10T06:16:36;1.30;;;1.17;;
15198;SDS011;7700;48.654;9.070;2023-05-10T06:19:02;1.48;;;1.10;;
15198;SDS011;7700;48.654;9.070;2023-05-10T06:21:28;2.05;;;1.30;;
15198;SDS011;7700;48.654;9.070;2023-05-10T06:23:55;1.42;;;1.20;;
15198;SDS011;7700;48.654;9.070;2023-05-10T06:26:21;2.00;;;1.00;;
15198;SDS011;7700;48.654;9.070;2023-05-10T06:28:47;2.17;;;1.00;;
15198;SDS011;7700;48.654;9.070;2023-05-10T06:31:13;1.00;;;0.88;;
15198;SDS011;7700;48.654;9.070;2023-05-10T06:33:39;2.40;;;1.25;;
15198;SDS011;7700;48.654;9.070;2023-05-10T06:36:05;1.00;;;1.00;;
15198;SDS011;7700;48.654;9.070;2023-05-10T06:38:31;1.85;;;1.27;;
15198;SDS011;7700;48.654;9.070;2023-05-10T06:40:57;2.00;;;0.90;;
15198;SDS011;7700;48.654;9.070;2023-05-10T06:43:23;1.10;;;1.00;;
15198;SDS011;7700;48.654;9.070;2023-05-10T06:45:51;1.08;;;0.93;;
15198;SDS011;7700;48.654;9.070;2023-05-10T06:48:17;1.52;;;1.40;;
15198;SDS011;7700;48.654;9.070;2023-05-10T06:50:42;1.90;;;1.00;;
15198;SDS011;7700;48.654;9.070;2023-05-10T06:53:09;1.83;;;1.20;;
15198;SDS011;7700;48.654;9.070;2023-05-10T06:55:35;1.10;;;1.10;;
15198;SDS011;7700;48.654;9.070;2023-05-10T06:58:00;1.25;;;1.02;;
15198;SDS011;7700;48.654;9.070;2023-05-10T07:00:27;2.20;;;0.70;;
15198;SDS011;7700;48.654;9.070;2023-05-10T07:02:53;2.03;;;1.00;;
15198;SDS011;7700;48.654;9.070;2023-05-10T07:05:18;1.35;;;1.13;;
15198;SDS011;7700;48.654;9.070;2023-05-10T07:07:45;2.08;;;0.98;;
15198;SDS011;7700;48.654;9.070;2023-05-10T07:10:11;1.42;;;1.30;;
15198;SDS011;7700;48.654;9.070;2023-05-10T07:12:36;2.17;;;1.02;;
15198;SDS011;7700;48.654;9.070;2023-05-10T07:15:03;1.60;;;1.00;;
15198;SDS011;7700;48.654;9.070;2023-05-10T07:17:29;1.08;;;1.08;;
15198;SDS011;7700;48.654;9.070;2023-05-10T07:19:55;2.33;;;1.30;;
15198;SDS011;7700;48.654;9.070;2023-05-10T07:22:21;1.33;;;1.00;;
15198;SDS011;7700;48.654;9.070;2023-05-10T07:24:47;1.85;;;1.20;;
15198;SDS011;7700;48.654;9.070;2023-05-10T07:27:13;1.63;;;1.00;;
15198;SDS011;7700;48.654;9.070;2023-05-10T07:29:39;2.90;;;1.13;;
15198;SDS011;7700;48.654;9.070;2023-05-10T07:32:05;1.58;;;1.20;;
15198;SDS011;7700;48.654;9.070;2023-05-10T07:34:31;1.95;;;0.80;;
15198;SDS011;7700;48.654;9.070;2023-05-10T07:36:58;0.93;;;0.77;;
15198;SDS011;7700;48.654;9.070;2023-05-10T07:39:24;1.10;;;0.77;;
15198;SDS011;7700;48.654;9.070;2023-05-10T07:41:50;0.75;;;0.65;;
15198;SDS011;7700;48.654;9.070;2023-05-10T07:44:16;2.35;;;0.90;;
15198;SDS011;7700;48.654;9.070;2023-05-10T07:46:44;0.80;;;0.80;;
15198;SDS011;7700;48.654;9.070;2023-05-10T07:49:10;0.60;;;0.60;;
15198;SDS011;7700;48.654;9.070;2023-05-10T07:51:36;1.63;;;0.80;;
15198;SDS011;7700;48.654;9.070;2023-05-10T07:54:01;0.63;;;0.55;;
15198;SDS011;7700;48.654;9.070;2023-05-10T07:56:28;0.50;;;0.50;;
15198;SDS011;7700;48.654;9.070;2023-05-10T07:58:55;0.63;;;0.60;;
15198;SDS011;7700;48.654;9.070;2023-05-10T08:01:21;0.88;;;0.60;;
15198;SDS011;7700;48.654;9.070;2023-05-10T08:03:48;0.68;;;0.60;;
15198;SDS011;7700;48.654;9.070;2023-05-10T08:06:14;0.60;;;0.50;;
15198;SDS011;7700;48.654;9.070;2023-05-10T08:08:41;0.55;;;0.50;;
15198;SDS011;7700;48.654;9.070;2023-05-10T08:11:07;0.50;;;0.50;;
15198;SDS011;7700;48.654;9.070;2023-05-10T08:13:33;1.73;;;0.60;;
15198;SDS011;7700;48.654;9.070;2023-05-10T08:15:59;1.25;;;0.50;;
15198;SDS011;7700;48.654;9.070;2023-05-10T08:18:25;1.95;;;0.60;;
15198;SDS011;7700;48.654;9.070;2023-05-10T08:20:51;1.17;;;0.45;;
15198;SDS011;7700;48.654;9.070;2023-05-10T08:23:17;2.30;;;0.50;;
15198;SDS011;7700;48.654;9.070;2023-05-10T08:25:43;1.08;;;0.73;;
15198;SDS011;7700;48.654;9.070;2023-05-10T08:28:09;1.55;;;0.40;;
15198;SDS011;7700;48.654;9.070;2023-05-10T08:30:35;3.40;;;0.40;;
15198;SDS011;7700;48.654;9.070;2023-05-10T08:33:01;0.55;;;0.50;;
15198;SDS011;7700;48.654;9.070;2023-05-10T08:35:27;1.08;;;0.30;;
15198;SDS011;7700;48.654;9.070;2023-05-10T08:37:53;0.30;;;0.30;;
15198;SDS011;7700;48.654;9.070;2023-05-10T08:40:19;0.60;;;0.30;;
15198;SDS011;7700;48.654;9.070;2023-05-10T08:42:51;0.35;;;0.35;;
15198;SDS011;7700;48.654;9.070;2023-05-10T08:45:21;0.68;;;0.30;;
15198;SDS011;7700;48.654;9.070;2023-05-10T08:47:48;0.70;;;0.57;;
15198;SDS011;7700;48.654;9.070;2023-05-10T08:50:16;1.05;;;0.40;;
15198;SDS011;7700;48.654;9.070;2023-05-10T08:52:43;0.52;;;0.52;;
15198;SDS011;7700;48.654;9.070;2023-05-10T08:55:11;0.38;;;0.30;;
15198;SDS011;7700;48.654;9.070;2023-05-10T08:57:37;0.30;;;0.30;;
15198;SDS011;7700;48.654;9.070;2023-05-10T09:00:03;0.30;;;0.30;;
15198;SDS011;7700;48.654;9.070;2023-05-10T09:02:29;0.40;;;0.30;;
15198;SDS011;7700;48.654;9.070;2023-05-10T09:04:55;1.35;;;0.40;;
15198;SDS011;7700;48.654;9.070;2023-05-10T09:07:21;0.40;;;0.40;;
15198;SDS011;7700;48.654;9.070;2023-05-10T09:09:48;0.45;;;0.45;;
15198;SDS011;7700;48.654;9.070;2023-05-10T09:12:14;1.02;;;0.30;;
15198;SDS011;7700;48.654;9.070;2023-05-10T09:14:41;0.95;;;0.38;;
15198;SDS011;7700;48.654;9.070;2023-05-10T09:17:07;0.95;;;0.35;;
15198;SDS011;7700;48.654;9.070;2023-05-10T09:19:35;1.17;;;0.47;;
15198;SDS011;7700;48.654;9.070;2023-05-10T09:22:01;1.23;;;0.50;;
15198;SDS011;7700;48.654;9.070;2023-05-10T09:24:29;1.67;;;0.70;;
15198;SDS011;7700;48.654;9.070;2023-05-10T09:26:55;2.65;;;1.10;;
15198;SDS011;7700;48.654;9.070;2023-05-10T09:29:22;1.38;;;0.90;;
15198;SDS011;7700;48.654;9.070;2023-05-10T09:31:49;2.17;;;0.90;;
15198;SDS011;7700;48.654;9.070;2023-05-10T09:34:30;0.75;;;0.65;;
15198;SDS011;7700;48.654;9.070;2023-05-10T09:36:57;1.50;;;0.60;;
15198;SDS011;7700;48.654;9.070;2023-05-10T09:39:32;0.60;;;0.55;;
15198;SDS011;7700;48.654;9.070;2023-05-10T09:42:02;2.88;;;0.60;;
15198;SDS011;7700;48.654;9.070;2023-05-10T09:44:28;1.17;;;0.20;;
15198;SDS011;7700;48.654;9.070;2023-05-10T09:46:54;0.82;;;0.52;;
15198;SDS011;7700;48.654;9.070;2023-05-10T09:49:21;2.22;;;0.43;;
15198;SDS011;7700;48.654;9.070;2023-05-10T09:51:47;0.55;;;0.20;;
15198;SDS011;7700;48.654;9.070;2023-05-10T09:54:14;0.43;;;0.38;;
15198;SDS011;7700;48.654;9.070;2023-05-10T09:56:40;0.60;;;0.30;;
15198;SDS011;7700;48.654;9.070;2023-05-10T09:59:08;1.55;;;0.50;;
15198;SDS011;7700;48.654;9.070;2023-05-10T10:03:30;0.30;;;0.30;;
15198;SDS011;7700;48.654;9.070;2023-05-10T10:05:56;0.30;;;0.30;;
15198;SDS011;7700;48.654;9.070;2023-05-10T10:08:22;0.60;;;0.32;;
15198;SDS011;7700;48.654;9.070;2023-05-10T10:10:48;0.50;;;0.30;;
15198;SDS011;7700;48.654;9.070;2023-05-10T10:13:14;0.40;;;0.30;;
15198;SDS011;7700;48.654;9.070;2023-05-10T10:15:42;0.98;;;0.40;;
15198;SDS011;7700;48.654;9.070;2023-05-10T10:18:12;0.65;;;0.30;;
15198;SDS011;7700;48.654;9.070;2023-05-10T10:20:39;0.60;;;0.22;;
15198;SDS011;7700;48.654;9.070;2023-05-10T10:23:05;0.25;;;0.25;;
15198;SDS011;7700;48.654;9.070;2023-05-10T10:25:31;0.57;;;0.30;;
15198;SDS011;7700;48.654;9.070;2023-05-10T10:28:07;0.60;;;0.32;;
15198;SDS011;7700;48.654;9.070;2023-05-10T10:30:42;1.55;;;0.30;;
15198;SDS011;7700;48.654;9.070;2023-05-10T10:33:13;0.30;;;0.30;;
15198;SDS011;7700;48.654;9.070;2023-05-10T10:35:44;0.63;;;0.30;;
15198;SDS011;7700;48.654;9.070;2023-05-10T10:38:12;0.63;;;0.30;;
15198;SDS011;7700;48.654;9.070;2023-05-10T10:40:38;0.38;;;0.38;;
15198;SDS011;7700;48.654;9.070;2023-05-10T10:43:21;1.90;;;0.40;;
15198;SDS011;7700;48.654;9.070;2023-05-10T10:48:33;0.40;;;0.40;;
15198;SDS011;7700;48.654;9.070;2023-05-10T10:50:59;1.58;;;0.30;;
15198;SDS011;7700;48.654;9.070;2023-05-10T10:53:26;1.58;;;0.30;;
15198;SDS011;7700;48.654;9.070;2023-05-10T10:56:02;1.10;;;0.60;;
15198;SDS011;7700;48.654;9.070;2023-05-10T10:58:29;2.17;;;0.38;;
15198;SDS011;7700;48.654;9.070;2023-05-10T11:03:40;2.22;;;0.60;;
15198;SDS011;7700;48.654;9.070;2023-05-10T11:06:06;2.95;;;0.90;;
15198;SDS011;7700;48.654;9.070;2023-05-10T11:08:33;3.17;;;0.80;;
15198;SDS011;7700;48.654;9.070;2023-05-10T11:13:44;1.13;;;0.60;;
15198;SDS011;7700;48.654;9.070;2023-05-10T11:16:17;1.92;;;1.05;;
15198;SDS011;7700;48.654;9.070;2023-05-10T11:19:01;0.90;;;0.55;;
15198;SDS011;7700;48.654;9.070;2023-05-10T11:21:28;1.88;;;0.80;;
15198;SDS011;7700;48.654;9.070;2023-05-10T11:23:58;0.60;;;0.38;;
15198;SDS011;7700;48.654;9.070;2023-05-10T11:26:24;2.15;;;0.70;;
15198;SDS011;7700;48.654;9.070;2023-05-10T11:28:52;0.43;;;0.43;;
15198;SDS011;7700;48.654;9.070;2023-05-10T11:31:20;1.50;;;0.50;;
15198;SDS011;7700;48.654;9.070;2023-05-10T11:33:53;0.57;;;0.38;;
15198;SDS011;7700;48.654;9.070;2023-05-10T11:36:21;2.22;;;0.70;;
15198;SDS011;7700;48.654;9.070;2023-05-10T11:38:47;1.40;;;0.60;;
15198;SDS011;7700;48.654;9.070;2023-05-10T11:41:15;2.03;;;0.70;;
15198;SDS011;7700;48.654;9.070;2023-05-10T11:43:41;1.30;;;1.15;;
15198;SDS011;7700;48.654;9.070;2023-05-10T11:46:09;1.30;;;0.85;;
15198;SDS011;7700;48.654;9.070;2023-05-10T11:48:36;0.40;;;0.40;;
15198;SDS011;7700;48.654;9.070;2023-05-10T11:51:02;1.92;;;0.90;;
15198;SDS011;7700;48.654;9.070;2023-05-10T11:53:31;1.40;;;0.70;;
15198;SDS011;7700;48.654;9.070;2023-05-10T11:58:30;0.70;;;0.70;;
15198;SDS011;7700;48.654;9.070;2023-05-10T12:00:56;0.50;;;0.50;;
15198;SDS011;7700;48.654;9.070;2023-05-10T12:03:22;1.48;;;0.60;;
15198;SDS011;7700;48.654;9.070;2023-05-10T12:05:48;1.38;;;0.60;;
15198;SDS011;7700;48.654;9.070;2023-05-10T12:08:15;0.90;;;0.60;;
15198;SDS011;7700;48.654;9.070;2023-05-10T12:10:41;0.50;;;0.47;;
15198;SDS011;7700;48.654;9.070;2023-05-10T12:13:11;3.03;;;1.00;;
15198;SDS011;7700;48.654;9.070;2023-05-10T12:15:39;0.63;;;0.50;;
15198;SDS011;7700;48.654;9.070;2023-05-10T12:18:05;1.38;;;0.50;;
15198;SDS011;7700;48.654;9.070;2023-05-10T12:20:31;1.75;;;0.90;;
15198;SDS011;7700;48.654;9.070;2023-05-10T12:22:57;2.35;;;0.65;;
15198;SDS011;7700;48.654;9.070;2023-05-10T12:25:29;31.35;;;3.10;;
15198;SDS011;7700;48.654;9.070;2023-05-10T12:27:56;0.50;;;0.40;;
15198;SDS011;7700;48.654;9.070;2023-05-10T12:32:48;2.70;;;0.60;;
15198;SDS011;7700;48.654;9.070;2023-05-10T12:35:14;3.03;;;0.80;;
15198;SDS011;7700;48.654;9.070;2023-05-10T12:37:42;1.15;;;0.60;;
15198;SDS011;7700;48.654;9.070;2023-05-10T12:40:08;3.63;;;0.60;;
15198;SDS011;7700;48.654;9.070;2023-05-10T12:42:35;1.17;;;0.60;;
15198;SDS011;7700;48.654;9.070;2023-05-10T12:45:02;2.30;;;0.70;;
15198;SDS011;7700;48.654;9.070;2023-05-10T12:47:28;1.48;;;0.55;;
15198;SDS011;7700;48.654;9.070;2023-05-10T12:49:54;3.08;;;0.80;;
15198;SDS011;7700;48.654;9.070;2023-05-10T12:52:20;2.22;;;0.77;;
15198;SDS011;7700;48.654;9.070;2023-05-10T12:54:46;1.33;;;0.70;;
15198;SDS011;7700;48.654;9.070;2023-05-10T12:57:12;2.17;;;0.77;;
15198;SDS011;7700;48.654;9.070;2023-05-10T12:59:38;2.15;;;0.80;;
15198;SDS011;7700;48.654;9.070;2023-05-10T13:02:05;1.42;;;0.95;;
15198;SDS011;7700;48.654;9.070;2023-05-10T13:04:31;0.68;;;0.68;;
15198;SDS011;7700;48.654;9.070;2023-05-10T13:06:57;1.45;;;0.80;;
15198;SDS011;7700;48.654;9.070;2023-05-10T13:09:26;1.63;;;0.60;;
15198;SDS011;7700;48.654;9.070;2023-05-10T13:11:54;1.15;;;0.70;;
15198;SDS011;7700;48.654;9.070;2023-05-10T13:14:20;1.95;;;1.27;;
15198;SDS011;7700;48.654;9.070;2023-05-10T13:16:46;1.17;;;1.00;;
15198;SDS011;7700;48.654;9.070;2023-05-10T13:19:13;1.92;;;0.93;;
15198;SDS011;7700;48.654;9.070;2023-05-10T13:21:39;2.97;;;1.00;;
15198;SDS011;7700;48.654;9.070;2023-05-10T13:24:09;1.92;;;0.77;;
15198;SDS011;7700;48.654;9.070;2023-05-10T13:26:35;3.00;;;1.00;;
15198;SDS011;7700;48.654;9.070;2023-05-10T13:29:02;0.85;;;0.77;;
15198;SDS011;7700;48.654;9.070;2023-05-10T13:31:28;1.90;;;0.45;;
15198;SDS011;7700;48.654;9.070;2023-05-10T13:33:54;1.02;;;0.55;;
15198;SDS011;7700;48.654;9.070;2023-05-10T13:36:20;1.80;;;0.50;;
15198;SDS011;7700;48.654;9.070;2023-05-10T13:38:47;2.67;;;0.60;;
15198;SDS011;7700;48.654;9.070;2023-05-10T13:41:13;1.70;;;0.82;;
15198;SDS011;7700;48.654;9.070;2023-05-10T13:43:39;1.65;;;0.90;;
15198;SDS011;7700;48.654;9.070;2023-05-10T13:46:05;1.73;;;0.70;;
15198;SDS011;7700;48.654;9.070;2023-05-10T13:48:31;2.63;;;0.60;;
15198;SDS011;7700;48.654;9.070;2023-05-10T13:50:57;1.98;;;0.95;;
15198;SDS011;7700;48.654;9.070;2023-05-10T13:53:23;1.52;;;0.80;;
15198;SDS011;7700;48.654;9.070;2023-05-10T13:55:49;1.35;;;0.50;;
15198;SDS011;7700;48.654;9.070;2023-05-10T13:58:15;1.25;;;0.63;;
15198;SDS011;7700;48.654;9.070;2023-05-10T14:00:41;1.15;;;0.40;;
15198;SDS011;7700;48.654;9.070;2023-05-10T14:03:07;1.33;;;0.63;;
15198;SDS011;7700;48.654;9.070;2023-05-10T14:05:35;0.55;;;0.55;;
15198;SDS011;7700;48.654;9.070;2023-05-10T14:08:01;1.52;;;0.75;;
15198;SDS011;7700;48.654;9.070;2023-05-10T14:10:27;1.30;;;0.60;;
15198;SDS011;7700;48.654;9.070;2023-05-10T14:12:53;2.30;;;0.88;;
15198;SDS011;7700;48.654;9.070;2023-05-10T14:15:19;2.50;;;0.60;;
15198;SDS011;7700;48.654;9.070;2023-05-10T14:17:46;0.88;;;0.80;;
15198;SDS011;7700;48.654;9.070;2023-05-10T14:20:12;1.40;;;0.80;;
15198;SDS011;7700;48.654;9.070;2023-05-10T14:22:38;2.00;;;0.77;;
15198;SDS011;7700;48.654;9.070;2023-05-10T14:25:04;0.57;;;0.57;;
15198;SDS011;7700;48.654;9.070;2023-05-10T14:27:30;1.90;;;0.60;;
15198;SDS011;7700;48.654;9.070;2023-05-10T14:29:56;0.68;;;0.55;;
15198;SDS011;7700;48.654;9.070;2023-05-10T14:32:22;1.52;;;0.73;;
15198;SDS011;7700;48.654;9.070;2023-05-10T14:34:47;1.38;;;0.90;;
15198;SDS011;7700;48.654;9.070;2023-05-10T14:37:13;3.53;;;0.80;;
15198;SDS011;7700;48.654;9.070;2023-05-10T14:39:40;2.67;;;0.77;;
15198;SDS011;7700;48.654;9.070;2023-05-10T14:42:07;2.00;;;0.40;;
15198;SDS011;7700;48.654;9.070;2023-05-10T14:44:33;0.82;;;0.60;;
15198;SDS011;7700;48.654;9.070;2023-05-10T14:46:59;1.45;;;0.90;;
15198;SDS011;7700;48.654;9.070;2023-05-10T14:49:25;1.35;;;0.90;;
15198;SDS011;7700;48.654;9.070;2023-05-10T14:51:51;1.52;;;0.70;;
15198;SDS011;7700;48.654;9.070;2023-05-10T14:54:17;4.43;;;1.25;;
15198;SDS011;7700;48.654;9.070;2023-05-10T14:56:43;3.00;;;0.85;;
15198;SDS011;7700;48.654;9.070;2023-05-10T14:59:10;1.48;;;0.75;;
15198;SDS011;7700;48.654;9.070;2023-05-10T15:01:36;1.95;;;0.50;;
15198;SDS011;7700;48.654;9.070;2023-05-10T15:04:03;2.58;;;0.60;;
15198;SDS011;7700;48.654;9.070;2023-05-10T15:06:33;2.42;;;0.60;;
15198;SDS011;7700;48.654;9.070;2023-05-10T15:08:59;0.40;;;0.30;;
15198;SDS011;7700;48.654;9.070;2023-05-10T15:11:25;0.75;;;0.35;;
15198;SDS011;7700;48.654;9.070;2023-05-10T15:13:51;0.30;;;0.30;;
15198;SDS011;7700;48.654;9.070;2023-05-10T15:16:17;1.25;;;0.60;;
15198;SDS011;7700;48.654;9.070;2023-05-10T15:18:43;0.77;;;0.77;;
15198;SDS011;7700;48.654;9.070;2023-05-10T15:21:09;2.30;;;0.70;;
15198;SDS011;7700;48.654;9.070;2023-05-10T15:23:35;2.65;;;0.60;;
15198;SDS011;7700;48.654;9.070;2023-05-10T15:26:01;0.60;;;0.60;;